Pevensey, United Kingdom
Current Conditions -  °F | °C
As of 1:20 PM on Thursday 18 Dec 2014 (Local Time) from EGKA Reporting Station
Broken Clouds Broken Clouds  
Wind Chill: 54°   Ceiling: 1200
Heat Index: 54°   Visibility: 5mi
Dew Point: 50°   Wind: 25mph
Humidity: 88%   Direction: 240°WSW
Pressure: 29.88"   Gusts: 37mph
Location:  50.82°N, 0.32°E
Report Text: EGKA 181320Z 24022G32KT 8000 FEW008 BKN012 12/10 Q1012
Loading
Personal Weather Stations






























Interactive Weather Map New forecast layout! Learn more

10-Day Weather Forecast

Advertisements
Track Severe Weather on mobile